Time;durP1;ratioP1;P1;durP2;ratioP2;P2;SDS_P1;SDS_P2;PMS_P1;PMS_P2;Temp;Humidity;BMP_temperature;BMP_pressure;BME280_temperature;BME280_humidity;BME280_pressure;Samples;Min_cycle;Max_cycle;Signal;HPM_P1;HPM_P2
2021/12/09 00:01:59;;;;;;;4.57;1.27;;;19.30;60.10;;;;;;4495069;31;20567;-73
2021/12/09 00:04:29;;;;;;;3.20;0.90;;;19.20;60.00;;;;;;4483931;31;20145;-72
2021/12/09 00:06:56;;;;;;;7.13;1.55;;;19.20;60.00;;;;;;4496940;31;20124;-73
2021/12/09 00:09:22;;;;;;;4.03;1.30;;;19.20;60.10;;;;;;4482828;31;20190;-73
2021/12/09 00:11:49;;;;;;;3.08;0.88;;;19.20;60.00;;;;;;4496294;31;20132;-72
2021/12/09 00:14:23;;;;;;;3.40;1.20;;;19.20;60.10;;;;;;4496535;31;20616;-73
2021/12/09 00:16:52;;;;;;;6.28;1.10;;;19.20;60.00;;;;;;4497899;31;20136;-73
2021/12/09 00:19:18;;;;;;;4.93;1.08;;;19.10;60.00;;;;;;4495055;31;20137;-73
2021/12/09 00:21:44;;;;;;;4.50;1.30;;;19.10;60.00;;;;;;4483555;31;20273;-72
2021/12/09 00:24:10;;;;;;;4.50;1.20;;;19.10;60.00;;;;;;4495387;31;20914;-72
2021/12/09 00:26:38;;;;;;;2.70;1.08;;;19.10;60.10;;;;;;4497429;31;20282;-72
2021/12/09 00:29:05;;;;;;;7.38;1.58;;;19.10;60.10;;;;;;4496063;31;20081;-72
2021/12/09 00:31:31;;;;;;;4.05;1.25;;;19.10;60.10;;;;;;4495046;31;20205;-72
2021/12/09 00:33:59;;;;;;;4.90;1.20;;;19.00;60.00;;;;;;4496624;32;20598;-73
2021/12/09 00:36:33;;;;;;;2.55;0.75;;;19.00;60.10;;;;;;4496119;32;20139;-73
2021/12/09 00:38:59;;;;;;;4.53;1.00;;;19.00;60.10;;;;;;4497444;32;20213;-72
2021/12/09 00:41:25;;;;;;;4.05;1.40;;;19.00;60.10;;;;;;4482356;32;20278;-72
2021/12/09 00:43:52;;;;;;;4.90;1.35;;;18.90;60.00;;;;;;4495950;32;20128;-72
2021/12/09 00:46:18;;;;;;;6.43;1.40;;;19.00;60.10;;;;;;4495986;32;20097;-72
2021/12/09 00:48:44;;;;;;;4.05;1.20;;;19.00;60.10;;;;;;4496375;32;20120;-73
2021/12/09 00:51:11;;;;;;;3.65;1.10;;;18.90;60.00;;;;;;4496126;32;20140;-72
2021/12/09 00:53:37;;;;;;;3.08;1.13;;;18.90;60.10;;;;;;4494897;32;20187;-73
2021/12/09 00:56:07;;;;;;;2.67;0.95;;;18.90;60.10;;;;;;4497544;32;20158;-72
2021/12/09 00:58:33;;;;;;;4.03;1.10;;;18.90;60.10;;;;;;4496577;32;20135;-72
2021/12/09 01:00:59;;;;;;;2.95;0.80;;;18.90;60.20;;;;;;4495745;32;20124;-73
2021/12/09 01:03:25;;;;;;;3.83;1.20;;;18.90;60.10;;;;;;4495972;32;20134;-72
2021/12/09 01:05:51;;;;;;;3.35;1.10;;;18.90;60.20;;;;;;4495056;32;20574;-73
2021/12/09 01:08:16;;;;;;;1.38;0.80;;;18.80;60.10;;;;;;4496124;32;20132;-72
2021/12/09 01:10:42;;;;;;;2.97;1.05;;;18.80;60.10;;;;;;4494849;31;20128;-72
2021/12/09 01:13:10;;;;;;;4.65;1.08;;;18.80;60.10;;;;;;4499775;31;20128;-72
2021/12/09 01:15:36;;;;;;;2.22;0.98;;;18.80;60.20;;;;;;4498176;31;20168;-72
2021/12/09 01:18:02;;;;;;;3.72;1.00;;;18.80;60.10;;;;;;4499799;31;20127;-72
2021/12/09 01:20:28;;;;;;;3.35;0.77;;;18.80;60.10;;;;;;4485788;31;20100;-72
2021/12/09 01:22:57;;;;;;;2.22;1.00;;;18.70;60.10;;;;;;4498018;31;20140;-72
2021/12/09 01:25:25;;;;;;;3.00;1.10;;;18.70;60.10;;;;;;4500044;31;20124;-72
2021/12/09 01:27:54;;;;;;;3.72;1.10;;;18.70;60.10;;;;;;4498839;31;20121;-72
2021/12/09 01:30:22;;;;;;;2.03;0.65;;;18.70;60.10;;;;;;4499834;31;20152;-72
2021/12/09 01:32:52;;;;;;;1.63;0.73;;;18.70;60.10;;;;;;4497957;31;20143;-72
2021/12/09 01:35:28;;;;;;;3.72;0.88;;;18.70;60.10;;;;;;4499193;31;20120;-72
2021/12/09 01:37:58;;;;;;;4.22;0.75;;;18.70;60.10;;;;;;4500056;31;20136;-72
2021/12/09 01:40:26;;;;;;;2.00;0.80;;;18.60;60.10;;;;;;4484561;31;20143;-73
2021/12/09 01:42:52;;;;;;;1.88;0.80;;;18.70;60.20;;;;;;4499877;31;20142;-72
2021/12/09 01:45:19;;;;;;;3.28;1.02;;;18.60;60.10;;;;;;4484209;31;20139;-72
2021/12/09 01:47:45;;;;;;;2.10;0.98;;;18.60;60.10;;;;;;4499803;31;20274;-72
2021/12/09 01:50:11;;;;;;;4.90;0.75;;;18.60;60.10;;;;;;4498329;31;20140;-72
2021/12/09 01:52:38;;;;;;;2.22;0.60;;;18.60;60.10;;;;;;4484618;31;20384;-72
2021/12/09 01:55:06;;;;;;;2.80;0.82;;;18.60;60.10;;;;;;4498590;31;20599;-72
2021/12/09 01:57:33;;;;;;;3.45;0.70;;;18.60;60.10;;;;;;4498142;31;20417;-72
2021/12/09 01:59:59;;;;;;;3.00;0.85;;;18.60;60.20;;;;;;4499665;31;20116;-72
2021/12/09 02:02:25;;;;;;;2.80;1.10;;;18.50;60.10;;;;;;4497375;31;20656;-72
2021/12/09 02:04:51;;;;;;;2.28;0.85;;;18.50;60.10;;;;;;4498321;31;20152;-73
2021/12/09 02:07:17;;;;;;;3.20;0.75;;;18.50;60.10;;;;;;4499060;31;20135;-72
2021/12/09 02:09:43;;;;;;;2.95;0.90;;;18.50;60.10;;;;;;4497477;31;20113;-72
2021/12/09 02:12:10;;;;;;;2.65;0.88;;;18.50;60.10;;;;;;4499286;31;20186;-72
2021/12/09 02:14:41;;;;;;;3.20;0.95;;;18.50;60.10;;;;;;4496845;31;20599;-72
2021/12/09 02:17:08;;;;;;;2.83;1.05;;;18.50;60.10;;;;;;4498596;31;20144;-72
2021/12/09 02:19:34;;;;;;;3.15;0.65;;;18.50;60.10;;;;;;4496999;31;20128;-72
2021/12/09 02:22:00;;;;;;;2.60;0.75;;;18.50;60.10;;;;;;4498227;31;20107;-73
2021/12/09 02:24:27;;;;;;;3.50;0.90;;;18.40;60.10;;;;;;4484328;31;20280;-72
2021/12/09 02:26:52;;;;;;;2.38;1.00;;;18.40;60.10;;;;;;4484300;31;20136;-72
2021/12/09 02:29:19;;;;;;;2.72;0.80;;;18.40;60.10;;;;;;4497986;31;20121;-72
2021/12/09 02:31:45;;;;;;;2.22;0.90;;;18.40;60.10;;;;;;4497775;31;20153;-73
2021/12/09 02:34:12;;;;;;;2.22;0.90;;;18.40;60.10;;;;;;4498306;31;20210;-72
2021/12/09 02:36:40;;;;;;;3.38;1.10;;;18.40;60.10;;;;;;4496712;31;20199;-72
2021/12/09 02:39:09;;;;;;;1.33;0.65;;;18.40;60.10;;;;;;4499037;31;20134;-72
2021/12/09 02:41:37;;;;;;;2.38;0.68;;;18.30;60.10;;;;;;4484417;31;20530;-72
2021/12/09 02:44:05;;;;;;;3.80;0.98;;;18.30;60.10;;;;;;4498205;31;20455;-72
2021/12/09 02:46:36;;;;;;;2.10;1.02;;;18.30;60.10;;;;;;4497833;31;20586;-72
2021/12/09 02:49:09;;;;;;;1.73;0.85;;;18.30;60.10;;;;;;4497695;31;20131;-72
2021/12/09 02:51:35;;;;;;;3.40;0.90;;;18.30;60.10;;;;;;4497838;31;20226;-72
2021/12/09 02:54:03;;;;;;;2.30;0.85;;;18.30;60.10;;;;;;4503803;31;20294;-72
2021/12/09 02:56:28;;;;;;;1.73;0.68;;;18.30;60.10;;;;;;4513706;31;20124;-72
2021/12/09 02:58:55;;;;;;;3.35;0.80;;;18.30;60.10;;;;;;4500635;31;20131;-72
2021/12/09 03:01:25;;;;;;;1.60;0.73;;;18.30;60.10;;;;;;4512428;31;20129;-74
2021/12/09 03:03:58;;;;;;;1.95;0.63;;;18.30;60.10;;;;;;4513621;31;20147;-72
2021/12/09 03:06:39;;;;;;;3.10;1.10;;;18.20;60.10;;;;;;4512105;31;20151;-72
2021/12/09 03:09:13;;;;;;;4.03;0.90;;;18.20;60.00;;;;;;4514541;31;20116;-72
2021/12/09 03:11:40;;;;;;;3.38;1.00;;;18.20;60.00;;;;;;4512758;31;20135;-71
2021/12/09 03:14:08;;;;;;;2.08;1.00;;;18.20;60.00;;;;;;4499470;31;20201;-72
2021/12/09 03:16:35;;;;;;;2.00;0.85;;;18.20;60.00;;;;;;4512891;31;20132;-72
2021/12/09 03:19:04;;;;;;;1.00;0.63;;;18.20;60.10;;;;;;4511991;31;20144;-72
2021/12/09 03:21:37;;;;;;;2.45;0.80;;;18.10;60.90;;;;;;4514248;31;20293;-72
2021/12/09 03:24:06;;;;;;;1.27;0.70;;;18.10;60.10;;;;;;4513609;31;20132;-72
2021/12/09 03:26:35;;;;;;;2.28;0.80;;;18.20;60.10;;;;;;4500000;31;20189;-72
2021/12/09 03:29:06;;;;;;;2.63;0.77;;;18.10;60.10;;;;;;4513003;31;20132;-72
2021/12/09 03:31:32;;;;;;;1.77;0.52;;;18.10;60.10;;;;;;4512820;31;20132;-72
2021/12/09 03:33:59;;;;;;;2.35;0.80;;;18.10;60.10;;;;;;4512697;31;20187;-72
2021/12/09 03:36:28;;;;;;;1.30;0.70;;;18.10;60.90;;;;;;4498533;31;20164;-72
2021/12/09 03:38:59;;;;;;;2.08;0.90;;;18.10;60.10;;;;;;4512837;31;20232;-72
2021/12/09 03:41:25;;;;;;;2.13;0.73;;;18.10;60.00;;;;;;4499514;31;20150;-72
2021/12/09 03:43:51;;;;;;;2.15;0.75;;;18.10;60.10;;;;;;4512280;31;20116;-72
2021/12/09 03:46:18;;;;;;;2.13;0.85;;;18.00;60.00;;;;;;4514003;31;20180;-72
2021/12/09 03:48:44;;;;;;;1.77;0.88;;;18.00;60.00;;;;;;4498415;31;20251;-72
2021/12/09 03:51:10;;;;;;;2.63;0.70;;;18.00;60.00;;;;;;4499590;31;20124;-72
2021/12/09 03:53:36;;;;;;;3.00;0.85;;;18.00;60.00;;;;;;4511503;31;20132;-72
2021/12/09 03:56:03;;;;;;;2.03;0.80;;;18.00;60.00;;;;;;4512832;31;20575;-72
2021/12/09 03:58:29;;;;;;;1.52;0.70;;;18.00;60.00;;;;;;4511941;31;20159;-72
2021/12/09 04:00:56;;;;;;;2.13;1.00;;;18.00;60.00;;;;;;4511982;31;20660;-72
2021/12/09 04:03:23;;;;;;;1.88;0.80;;;18.00;60.00;;;;;;4512577;31;20093;-72
2021/12/09 04:05:50;;;;;;;3.40;0.70;;;18.00;60.00;;;;;;4511284;31;20131;-72
2021/12/09 04:08:17;;;;;;;2.17;0.73;;;18.00;60.00;;;;;;4513887;31;20592;-72
2021/12/09 04:10:43;;;;;;;2.10;0.80;;;18.00;60.00;;;;;;4511017;31;20125;-72
2021/12/09 04:13:09;;;;;;;1.67;0.70;;;17.90;60.00;;;;;;4513803;31;20132;-72
2021/12/09 04:15:35;;;;;;;1.63;0.70;;;17.90;60.00;;;;;;4498599;31;20124;-72
2021/12/09 04:18:02;;;;;;;2.67;0.70;;;18.00;60.00;;;;;;4512027;31;20163;-72
2021/12/09 04:20:28;;;;;;;2.10;0.68;;;17.90;60.00;;;;;;4513568;31;20092;-72
2021/12/09 04:22:54;;;;;;;1.92;0.82;;;17.90;60.00;;;;;;4512121;31;20143;-72
2021/12/09 04:25:22;;;;;;;1.52;0.50;;;17.90;60.00;;;;;;4499415;31;20141;-72
2021/12/09 04:27:51;;;;;;;1.13;0.63;;;17.90;60.00;;;;;;4511882;31;20496;-72
2021/12/09 04:30:17;;;;;;;2.60;0.80;;;17.90;60.00;;;;;;4512442;31;20139;-72
2021/12/09 04:32:44;;;;;;;1.75;0.68;;;17.90;60.90;;;;;;4511291;31;20309;-72
2021/12/09 04:35:11;;;;;;;1.67;0.70;;;17.80;60.00;;;;;;4512091;31;20551;-72
2021/12/09 04:37:38;;;;;;;2.42;0.88;;;17.90;60.00;;;;;;4512221;31;20093;-72
2021/12/09 04:40:10;;;;;;;2.03;0.52;;;17.80;60.00;;;;;;4497877;31;20138;-72
2021/12/09 04:42:37;;;;;;;1.23;0.80;;;17.80;59.90;;;;;;4512459;31;20271;-72
2021/12/09 04:45:04;;;;;;;1.75;0.80;;;17.80;59.90;;;;;;4512116;31;20132;-72
2021/12/09 04:47:30;;;;;;;1.88;0.70;;;17.80;60.00;;;;;;4502035;31;20216;-72
2021/12/09 04:49:56;;;;;;;2.25;0.80;;;17.80;60.00;;;;;;4501230;31;20206;-72
2021/12/09 04:52:22;;;;;;;2.15;0.82;;;17.80;59.90;;;;;;4515144;31;20187;-72
2021/12/09 04:54:48;;;;;;;1.52;0.90;;;17.80;59.90;;;;;;4502158;31;20146;-71
2021/12/09 04:57:15;;;;;;;1.70;0.70;;;17.80;60.00;;;;;;4514209;31;20144;-72
2021/12/09 04:59:41;;;;;;;1.95;0.80;;;17.80;60.00;;;;;;4502389;31;20396;-72
2021/12/09 05:02:13;;;;;;;2.13;0.82;;;17.80;60.00;;;;;;4514034;31;20688;-72
2021/12/09 05:04:38;;;;;;;1.02;0.60;;;17.80;60.80;;;;;;4515431;31;20140;-72
2021/12/09 05:07:06;;;;;;;1.55;0.77;;;17.70;59.80;;;;;;4514267;31;20232;-72
2021/12/09 05:09:37;;;;;;;1.45;0.50;;;17.70;59.90;;;;;;4514760;31;20344;-72
2021/12/09 05:12:05;;;;;;;1.80;0.75;;;17.70;59.90;;;;;;4515077;31;20117;-72
2021/12/09 05:14:32;;;;;;;1.33;0.80;;;17.70;59.90;;;;;;4514097;31;20266;-72
2021/12/09 05:16:58;;;;;;;1.75;0.70;;;17.70;59.90;;;;;;4515015;31;20246;-72
2021/12/09 05:19:24;;;;;;;1.38;0.60;;;17.70;59.90;;;;;;4500544;31;20229;-71
2021/12/09 05:21:53;;;;;;;1.35;0.80;;;17.70;59.90;;;;;;4515238;31;20246;-72
2021/12/09 05:24:19;;;;;;;1.67;0.80;;;17.70;59.90;;;;;;4515334;31;20221;-72
2021/12/09 05:26:51;;;;;;;2.65;1.00;;;17.70;59.90;;;;;;4514328;31;20120;-72
2021/12/09 05:29:21;;;;;;;1.85;0.73;;;17.60;59.90;;;;;;4487826;31;20163;-72
2021/12/09 05:34:32;;;;;;;1.17;0.70;;;17.60;59.90;;;;;;4499971;31;20206;-73
2021/12/09 05:36:59;;;;;;;1.38;0.70;;;17.60;59.90;;;;;;4498698;31;20140;-72
2021/12/09 05:39:25;;;;;;;1.33;0.65;;;17.60;59.90;;;;;;4498093;31;20132;-73
2021/12/09 05:41:53;;;;;;;1.08;0.63;;;17.60;59.90;;;;;;4499452;31;20144;-72
2021/12/09 05:44:19;;;;;;;2.28;0.80;;;17.60;59.90;;;;;;4497251;31;20144;-72
2021/12/09 05:46:47;;;;;;;1.17;0.65;;;17.60;59.90;;;;;;4485711;31;20180;-72
2021/12/09 05:49:15;;;;;;;1.25;0.60;;;17.60;60.00;;;;;;4496797;31;20129;-73
2021/12/09 05:51:43;;;;;;;1.45;0.80;;;17.60;59.90;;;;;;4499446;31;20162;-72
2021/12/09 05:54:09;;;;;;;1.00;0.68;;;17.60;59.90;;;;;;4498287;31;20133;-72
2021/12/09 05:56:35;;;;;;;1.75;0.80;;;17.50;59.90;;;;;;4497867;31;20167;-73
2021/12/09 05:59:03;;;;;;;1.30;0.60;;;17.50;59.90;;;;;;4497209;31;20223;-73
2021/12/09 06:01:29;;;;;;;1.17;0.70;;;17.50;59.90;;;;;;4505579;31;20529;-72
2021/12/09 06:03:56;;;;;;;1.08;0.70;;;17.50;60.00;;;;;;4498303;31;20135;-72
2021/12/09 06:06:22;;;;;;;1.27;0.68;;;17.50;59.90;;;;;;4496549;31;20136;-72
2021/12/09 06:08:47;;;;;;;1.10;0.60;;;17.50;59.90;;;;;;4500506;31;20135;-72
2021/12/09 06:11:14;;;;;;;2.92;1.20;;;17.50;59.90;;;;;;4509483;31;20353;-72
2021/12/09 06:13:40;;;;;;;1.98;0.93;;;17.50;59.90;;;;;;4497993;31;20143;-72
2021/12/09 06:16:08;;;;;;;1.35;0.65;;;17.50;59.90;;;;;;4497708;31;20136;-72
2021/12/09 06:18:34;;;;;;;1.70;0.63;;;17.50;59.90;;;;;;4498036;31;20132;-73
2021/12/09 06:21:00;;;;;;;1.65;0.73;;;17.40;59.90;;;;;;4497426;31;20187;-73
2021/12/09 06:23:27;;;;;;;1.67;0.65;;;17.50;59.90;;;;;;4496883;31;20140;-73
2021/12/09 06:25:52;;;;;;;1.77;0.77;;;17.40;59.90;;;;;;4484342;31;20195;-71
2021/12/09 06:28:19;;;;;;;1.45;0.75;;;17.40;59.90;;;;;;4495547;31;20899;-72
2021/12/09 06:30:47;;;;;;;1.63;0.80;;;17.40;60.00;;;;;;4496697;31;20512;-73
2021/12/09 06:33:13;;;;;;;2.70;0.75;;;17.40;59.90;;;;;;4497683;31;20254;-72
2021/12/09 06:35:40;;;;;;;1.42;0.63;;;17.40;59.90;;;;;;4482886;31;20165;-72
2021/12/09 06:38:11;;;;;;;1.63;0.70;;;17.40;59.90;;;;;;4498273;31;20155;-71
2021/12/09 06:40:38;;;;;;;1.00;0.60;;;17.40;60.00;;;;;;4497319;31;20132;-72
2021/12/09 06:43:04;;;;;;;1.88;0.80;;;17.40;60.00;;;;;;4497328;31;20152;-72
2021/12/09 06:45:30;;;;;;;1.88;0.90;;;17.30;59.90;;;;;;4482448;31;20136;-72
2021/12/09 06:47:56;;;;;;;0.77;0.60;;;17.30;59.90;;;;;;4496459;31;20117;-72
2021/12/09 06:50:23;;;;;;;0.85;0.50;;;17.40;60.00;;;;;;4496017;31;20155;-71
2021/12/09 06:52:50;;;;;;;1.50;0.65;;;17.30;59.90;;;;;;4495498;31;20711;-68
2021/12/09 06:55:18;;;;;;;3.70;0.90;;;17.40;60.00;;;;;;4497551;31;20140;-69
2021/12/09 06:57:44;;;;;;;2.25;1.00;;;17.30;59.90;;;;;;4496335;31;20136;-69
2021/12/09 07:00:23;;;;;;;2.95;1.00;;;17.30;59.70;;;;;;4498523;31;20133;-69
2021/12/09 07:02:49;;;;;;;1.65;0.80;;;17.30;59.50;;;;;;4496791;31;20302;-69
2021/12/09 07:05:18;;;;;;;2.13;0.93;;;17.20;59.60;;;;;;4483310;31;20233;-70
2021/12/09 07:07:44;;;;;;;2.70;0.98;;;17.20;59.70;;;;;;4497152;31;20132;-61
2021/12/09 07:10:12;;;;;;;3.75;1.20;;;17.30;59.90;;;;;;4495220;31;20161;-68
2021/12/09 07:12:38;;;;;;;3.72;1.00;;;17.20;59.80;;;;;;4496575;31;20167;-67
2021/12/09 07:15:07;;;;;;;4.28;0.90;;;17.30;59.60;;;;;;4494768;31;20285;-68
2021/12/09 07:17:33;;;;;;;2.35;0.80;;;17.30;59.60;;;;;;4496115;31;20494;-68
2021/12/09 07:19:59;;;;;;;2.13;1.10;;;17.40;59.50;;;;;;4496929;31;20120;-68
2021/12/09 07:22:25;;;;;;;2.88;0.95;;;17.50;59.30;;;;;;4496646;31;20187;-67
2021/12/09 07:24:54;;;;;;;1.25;0.60;;;17.60;59.10;;;;;;4497005;31;20128;-67
2021/12/09 07:27:20;;;;;;;2.58;0.93;;;17.80;58.80;;;;;;4496778;31;20149;-69
2021/12/09 07:29:45;;;;;;;1.70;0.95;;;17.90;58.50;;;;;;4497338;31;20125;-68
2021/12/09 07:32:11;;;;;;;2.67;1.00;;;18.00;58.20;;;;;;4495640;31;20191;-69
2021/12/09 07:34:38;;;;;;;0.93;0.50;;;18.10;58.00;;;;;;4497204;31;20274;-68
2021/12/09 07:37:04;;;;;;;1.80;0.80;;;18.20;57.70;;;;;;4496036;31;20127;-69
2021/12/09 07:39:32;;;;;;;2.00;0.73;;;18.30;57.50;;;;;;4496575;31;20132;-69
2021/12/09 07:41:59;;;;;;;1.92;0.77;;;18.40;57.30;;;;;;4496878;31;20162;-69
2021/12/09 07:44:26;;;;;;;2.25;0.82;;;18.50;57.10;;;;;;4496499;31;20129;-68
2021/12/09 07:46:54;;;;;;;1.58;0.80;;;18.60;56.90;;;;;;4497172;31;20140;-69
2021/12/09 07:49:21;;;;;;;2.33;0.90;;;18.70;56.60;;;;;;4496519;31;20319;-68
2021/12/09 07:51:48;;;;;;;2.03;0.95;;;18.80;56.40;;;;;;4498098;31;20133;-68
2021/12/09 07:54:14;;;;;;;2.65;0.52;;;18.90;56.20;;;;;;4497170;31;20121;-68
2021/12/09 07:56:40;;;;;;;1.75;0.68;;;19.00;56.00;;;;;;4495831;31;20140;-70
2021/12/09 07:59:07;;;;;;;1.58;0.70;;;19.10;55.90;;;;;;4496657;31;20136;-70
2021/12/09 08:01:33;;;;;;;2.95;0.60;;;19.10;55.70;;;;;;4482325;31;20113;-70
2021/12/09 08:04:01;;;;;;;2.47;0.75;;;19.20;55.60;;;;;;4496978;31;20136;-70
2021/12/09 08:06:28;;;;;;;1.52;0.60;;;19.30;55.40;;;;;;4496143;31;20186;-71
2021/12/09 08:08:53;;;;;;;1.65;0.90;;;19.50;55.30;;;;;;4496609;31;20207;-70
2021/12/09 08:11:19;;;;;;;2.08;0.60;;;19.50;55.00;;;;;;4495425;31;20451;-68
2021/12/09 08:13:45;;;;;;;3.38;0.90;;;19.60;54.80;;;;;;4483103;31;20144;-72
2021/12/09 08:16:11;;;;;;;2.03;0.80;;;19.70;54.70;;;;;;4497370;31;20274;-70
2021/12/09 08:18:53;;;;;;;5.82;1.33;;;19.80;54.50;;;;;;4495088;31;20117;-69
2021/12/09 08:21:21;;;;;;;2.35;1.00;;;19.80;53.90;;;;;;4496575;31;20167;-69
2021/12/09 08:23:47;;;;;;;1.85;1.10;;;19.90;53.20;;;;;;4496317;31;20195;-70
2021/12/09 08:26:13;;;;;;;3.00;0.70;;;19.90;53.10;;;;;;4496919;31;20191;-70
2021/12/09 08:28:39;;;;;;;2.80;0.85;;;19.90;53.10;;;;;;4506338;31;20148;-70
2021/12/09 08:31:05;;;;;;;1.77;0.90;;;19.90;53.10;;;;;;4512640;31;20128;-69
2021/12/09 08:33:31;;;;;;;1.05;0.70;;;20.00;53.10;;;;;;4512215;31;20262;-68
2021/12/09 08:35:57;;;;;;;3.13;0.70;;;20.00;53.10;;;;;;4484975;31;20121;-70
2021/12/09 08:38:25;;;;;;;1.83;0.70;;;20.10;53.10;;;;;;4499281;31;20601;-69
2021/12/09 08:40:52;;;;;;;4.47;0.77;;;20.10;53.10;;;;;;4497466;31;20128;-69
2021/12/09 08:43:21;;;;;;;1.75;0.52;;;20.10;53.10;;;;;;4512247;31;20128;-68
2021/12/09 08:45:49;;;;;;;1.20;0.70;;;20.10;53.10;;;;;;4512646;31;20633;-69
2021/12/09 08:48:16;;;;;;;2.28;0.80;;;20.10;53.20;;;;;;4512610;31;20254;-70
2021/12/09 08:50:44;;;;;;;2.53;0.50;;;20.10;53.20;;;;;;4511736;31;20165;-69
2021/12/09 08:53:14;;;;;;;1.90;0.60;;;20.10;53.30;;;;;;4511929;31;20124;-69
2021/12/09 08:55:42;;;;;;;2.97;1.20;;;20.10;53.20;;;;;;4512271;31;20117;-70
2021/12/09 08:58:10;;;;;;;4.13;0.88;;;20.10;53.10;;;;;;4497210;31;20261;-68
2021/12/09 09:00:37;;;;;;;3.20;0.80;;;20.20;53.00;;;;;;4496944;31;20247;-67
2021/12/09 09:03:05;;;;;;;2.10;0.93;;;20.20;53.10;;;;;;4496086;32;20137;-70
2021/12/09 09:05:33;;;;;;;1.58;0.88;;;20.20;53.20;;;;;;4498302;31;20194;-68
2021/12/09 09:08:01;;;;;;;4.13;0.85;;;20.20;53.30;;;;;;4496298;31;20128;-70
2021/12/09 09:10:29;;;;;;;3.65;0.70;;;20.20;53.40;;;;;;4494711;31;20128;-70
2021/12/09 09:12:55;;;;;;;2.33;0.73;;;20.30;53.50;;;;;;4497119;31;20141;-70
2021/12/09 09:15:24;;;;;;;2.13;1.15;;;20.30;53.50;;;;;;4504691;31;20172;-73
2021/12/09 09:17:51;;;;;;;4.50;1.08;;;20.30;53.60;;;;;;4498222;31;20285;-68
2021/12/09 09:20:20;;;;;;;3.25;1.10;;;20.30;53.60;;;;;;4496714;31;20136;-70
2021/12/09 09:22:47;;;;;;;4.60;1.00;;;20.30;53.10;;;;;;4494870;32;20141;-69
2021/12/09 09:25:17;;;;;;;5.38;1.00;;;20.30;52.90;;;;;;4495894;32;20139;-69
2021/12/09 09:27:44;;;;;;;4.70;1.25;;;20.30;52.90;;;;;;4498187;31;20187;-73
2021/12/09 09:30:14;;;;;;;2.20;0.95;;;20.30;53.10;;;;;;4502761;31;20265;-70
2021/12/09 09:32:41;;;;;;;2.05;0.90;;;20.30;53.20;;;;;;4495857;31;20128;-70
2021/12/09 09:35:09;;;;;;;4.20;0.82;;;20.30;53.30;;;;;;4498900;31;20129;-73
2021/12/09 09:37:35;;;;;;;1.50;0.70;;;20.30;53.40;;;;;;4498563;31;20163;-74
2021/12/09 09:40:05;;;;;;;2.45;0.77;;;20.30;53.40;;;;;;4492509;31;20125;-69
2021/12/09 09:45:10;;;;;;;2.70;0.80;;;20.30;53.60;;;;;;4512377;31;20135;-69
2021/12/09 09:47:36;;;;;;;2.33;1.05;;;20.30;53.70;;;;;;4487932;31;20482;-69
2021/12/09 09:50:07;;;;;;;3.45;0.88;;;20.40;53.90;;;;;;4500827;31;20151;-68
2021/12/09 09:52:33;;;;;;;1.90;0.85;;;20.40;54.00;;;;;;4514982;31;20175;-70
2021/12/09 09:55:02;;;;;;;1.42;0.90;;;20.40;54.00;;;;;;4515346;31;20125;-70
2021/12/09 09:57:28;;;;;;;2.80;0.93;;;20.40;54.10;;;;;;4514576;31;20144;-72
2021/12/09 09:59:54;;;;;;;2.00;0.93;;;20.30;54.10;;;;;;4499372;31;20171;-72
2021/12/09 10:02:20;;;;;;;2.88;0.70;;;20.40;54.20;;;;;;4490016;31;20935;-71
2021/12/09 10:04:59;;;;;;;3.45;0.98;;;20.30;54.40;;;;;;4499160;31;20156;-73
2021/12/09 10:07:26;;;;;;;2.35;0.95;;;20.40;54.50;;;;;;4498438;31;20140;-70
2021/12/09 10:09:54;;;;;;;3.50;1.10;;;20.40;54.60;;;;;;4497877;31;20136;-71
2021/12/09 10:12:20;;;;;;;6.50;0.70;;;20.40;54.80;;;;;;4498030;31;20227;-71
2021/12/09 10:14:48;;;;;;;2.42;0.68;;;20.30;54.70;;;;;;4483337;31;20151;-71
2021/12/09 10:17:27;;;;;;;2.35;0.90;;;20.30;54.70;;;;;;4485098;31;20128;-71
2021/12/09 10:19:57;;;;;;;4.28;0.70;;;20.30;54.80;;;;;;4497023;31;20533;-71
2021/12/09 10:22:27;;;;;;;1.80;0.85;;;20.30;54.80;;;;;;4498470;31;20113;-70
2021/12/09 10:24:55;;;;;;;2.63;0.60;;;20.30;54.90;;;;;;4498685;31;20547;-70
2021/12/09 10:27:29;;;;;;;2.13;0.93;;;20.30;55.10;;;;;;4496282;31;20172;-70
2021/12/09 10:30:21;;;;;;;2.22;0.80;;;20.30;55.20;;;;;;4498786;31;20125;-71
2021/12/09 10:32:50;;;;;;;1.65;0.70;;;20.30;55.20;;;;;;4497652;31;20212;-71
2021/12/09 10:35:21;;;;;;;2.50;0.70;;;20.30;55.20;;;;;;4484495;31;20143;-73
2021/12/09 10:37:50;;;;;;;2.00;0.73;;;20.30;55.20;;;;;;4498147;31;20656;-74
2021/12/09 10:40:25;;;;;;;1.98;0.80;;;20.30;55.20;;;;;;4482937;31;20147;-73
2021/12/09 10:42:58;;;;;;;1.50;0.70;;;20.40;55.30;;;;;;4497591;31;20255;-71
2021/12/09 10:45:38;;;;;;;2.20;0.90;;;20.40;55.30;;;;;;4497742;31;20259;-68
2021/12/09 10:56:06;;;;;;;2.92;0.85;;;20.40;54.40;;;;;;4498141;31;20116;-71
2021/12/09 10:58:38;;;;;;;3.55;1.00;;;20.40;54.40;;;;;;4497184;31;20121;-72
2021/12/09 11:01:20;;;;;;;3.38;0.95;;;20.40;54.40;;;;;;4487048;31;30502;-71
2021/12/09 11:03:53;;;;;;;2.75;0.90;;;20.40;54.40;;;;;;4506380;31;20159;-69
2021/12/09 11:06:34;;;;;;;1.38;0.80;;;20.40;54.40;;;;;;4509581;31;20132;-69
2021/12/09 11:09:03;;;;;;;2.45;1.00;;;20.40;54.50;;;;;;4496155;31;20151;-71
2021/12/09 11:11:42;;;;;;;4.75;0.95;;;20.40;54.60;;;;;;4497431;31;20136;-70
2021/12/09 11:14:16;;;;;;;1.98;0.80;;;20.40;54.60;;;;;;4497703;31;20206;-71
2021/12/09 11:16:51;;;;;;;3.72;0.75;;;20.40;54.80;;;;;;4496990;31;20544;-71
2021/12/09 11:22:14;;;;;;;0.90;0.60;;;20.40;54.80;;;;;;4497393;31;20151;-73
2021/12/09 11:24:45;;;;;;;2.83;0.70;;;20.40;54.90;;;;;;4485273;31;20174;-73
2021/12/09 11:27:22;;;;;;;2.63;0.98;;;20.40;54.90;;;;;;4495489;31;20125;-73
2021/12/09 11:29:51;;;;;;;2.35;0.80;;;20.40;55.00;;;;;;4497904;31;20245;-73
2021/12/09 11:32:33;;;;;;;2.45;0.85;;;20.40;55.10;;;;;;4496470;31;20128;-71
2021/12/09 11:35:12;;;;;;;2.35;0.80;;;20.40;55.20;;;;;;4497848;31;20129;-70
2021/12/09 11:37:45;;;;;;;5.78;0.93;;;20.40;54.90;;;;;;4498206;31;20612;-71
2021/12/09 11:40:33;;;;;;;2.45;1.20;;;20.40;54.90;;;;;;4496835;31;20186;-71
2021/12/09 11:43:02;;;;;;;2.00;0.93;;;20.40;54.90;;;;;;4484576;31;20113;-72
2021/12/09 11:45:31;;;;;;;4.35;0.95;;;20.40;54.90;;;;;;4482994;31;20485;-69
2021/12/09 11:47:58;;;;;;;4.13;1.05;;;20.30;54.70;;;;;;4497364;31;20259;-71
2021/12/09 11:50:35;;;;;;;3.97;1.15;;;20.30;54.80;;;;;;4497712;31;20084;-70
2021/12/09 11:53:04;;;;;;;2.75;0.82;;;20.30;54.80;;;;;;4497474;31;20229;-73
2021/12/09 11:55:38;;;;;;;4.57;1.10;;;20.30;54.80;;;;;;4497929;31;20143;-77
2021/12/09 11:58:16;;;;;;;2.65;1.00;;;20.40;54.90;;;;;;4496619;31;20147;-74
2021/12/09 12:12:43;;;;;;;1.98;0.90;;;20.70;54.60;;;;;;4496162;31;20262;-75
2021/12/09 12:26:54;;;;;;;2.15;0.80;;;21.00;54.30;;;;;;4478417;31;20135;-77
2021/12/09 12:40:22;;;;;;;2.85;0.70;;;21.00;54.30;;;;;;4510972;31;20128;-76
2021/12/09 12:43:16;;;;;;;1.92;0.77;;;21.10;54.50;;;;;;4512660;31;20144;-78
2021/12/09 12:52:09;;;;;;;1.90;0.75;;;21.00;54.50;;;;;;4512310;31;20132;-74
2021/12/09 12:54:49;;;;;;;4.55;0.82;;;21.10;54.60;;;;;;4508398;31;20209;-75
2021/12/09 12:57:29;;;;;;;8.00;1.00;;;21.00;54.80;;;;;;4511010;31;20139;-73
2021/12/09 13:00:19;;;;;;;4.05;0.95;;;21.00;54.90;;;;;;4506620;31;20278;-74
2021/12/09 13:06:00;;;;;;;2.30;1.05;;;21.00;55.20;;;;;;4508993;31;20411;-74
2021/12/09 13:09:07;;;;;;;6.97;0.98;;;21.10;55.30;;;;;;4514757;31;20151;-71
2021/12/09 13:11:53;;;;;;;7.68;1.00;;;21.10;55.30;;;;;;4514690;31;20136;-72
2021/12/09 13:14:28;;;;;;;2.15;0.77;;;21.20;55.40;;;;;;4510809;31;20159;-73
2021/12/09 13:17:02;;;;;;;;;;;21.20;55.20;;;;;;4499442;31;20179;-74
2021/12/09 13:19:53;;;;;;;2.28;0.80;;;21.20;55.20;;;;;;4500752;31;20041;-72
2021/12/09 13:22:33;;;;;;;3.25;0.80;;;21.20;55.20;;;;;;4499073;31;20159;-73
2021/12/09 13:25:25;;;;;;;2.05;0.85;;;21.20;55.30;;;;;;4512720;31;20202;-72
2021/12/09 13:33:58;;;;;;;3.78;1.00;;;21.20;55.70;;;;;;4487465;31;20158;-74
2021/12/09 13:39:24;;;;;;;2.33;0.60;;;21.20;55.70;;;;;;4497286;31;20148;-75
2021/12/09 13:50:59;;;;;;;2.22;0.90;;;21.20;55.90;;;;;;4503588;31;20128;-72
2021/12/09 13:55:31;;;;;;;1.73;0.77;;;21.20;56.10;;;;;;4514707;31;20188;-72
2021/12/09 13:57:59;;;;;;;2.33;0.88;;;21.20;56.10;;;;;;4502782;31;20148;-73
2021/12/09 14:00:25;;;;;;;1.85;0.90;;;21.20;56.10;;;;;;4511565;31;20388;-71
2021/12/09 14:03:09;;;;;;;2.35;0.90;;;21.10;56.20;;;;;;4515298;31;20112;-66
2021/12/09 14:05:49;;;;;;;4.57;0.82;;;21.10;56.20;;;;;;4502358;31;20182;-74
2021/12/09 14:08:25;;;;;;;1.67;1.00;;;21.10;56.20;;;;;;4515466;31;20129;-74
2021/12/09 14:10:54;;;;;;;4.43;0.93;;;21.20;56.00;;;;;;4500754;31;20144;-74
2021/12/09 14:13:23;;;;;;;1.58;0.80;;;21.10;55.70;;;;;;4514090;31;20187;-74
2021/12/09 14:16:05;;;;;;;2.05;0.90;;;21.20;55.70;;;;;;4514183;31;20146;-75
2021/12/09 14:19:57;;;;;;;5.18;1.00;;;21.20;55.70;;;;;;4511920;31;20135;-75